This is the latest recevied weather packets stored in our database for station/object OE6PWE-13. If no packets are shown the sender has not sent any weather packets the latest 10 day(s).
| Time | Temp. | Humidity | Pressure | Rain* | Wind** | Luminosity | Snow |
|---|---|---|---|---|---|---|---|
| 1777706114 | 16.67° C | 57% | 1024 hPa | 0 mm | - | - | - |
| 1777705219 | 13.89° C | 66% | 1025 hPa | 0 mm | - | - | - |
| 1777704314 | 10.56° C | 73% | 1025 hPa | 0 mm | - | - | - |
| 1777703419 | 8.89° C | 80% | 1026 hPa | 0 mm | - | - | - |
| 1777702513 | 7.22° C | 93% | 1026 hPa | 0 mm | - | - | - |
| 1777701620 | 5.56° C | 99% | 1026 hPa | 0 mm | - | - | - |
| 1777700713 | 4.44° C | 99% | 1027 hPa | 0 mm | - | - | - |
| 1777699820 | 3.89° C | 99% | 1027 hPa | 0 mm | - | - | - |
| 1777698913 | 3.89° C | 99% | 1027 hPa | 0 mm | - | - | - |
| 1777698020 | 3.33° C | 99% | 1027 hPa | 0 mm | - | - | - |
| 1777697113 | 2.78° C | 99% | 1027 hPa | 0 mm | - | - | - |
| 1777696220 | 2.78° C | 99% | 1027 hPa | 0 mm | - | - | - |
| 1777695313 | 2.78° C | 99% | 1027 hPa | 0 mm | - | - | - |
| 1777694419 | 3.33° C | 99% | 1026 hPa | 0 mm | - | - | - |
| 1777693513 | 2.78° C | 99% | 1026 hPa | 0 mm | - | - | - |
| 1777692620 | 3.33° C | 98% | 1026 hPa | 0 mm | - | - | - |
| 1777691714 | 3.33° C | 98% | 1026 hPa | 0 mm | - | - | - |
| 1777689913 | 3.33° C | 97% | 1026 hPa | 0 mm | - | - | - |
| 1777688113 | 3.89° C | 96% | 1027 hPa | 0 mm | - | - | - |
| 1777687220 | 3.33° C | 96% | 1027 hPa | 0 mm | - | - | - |
| 1777686313 | 3.89° C | 95% | 1027 hPa | 0 mm | - | - | - |
| 1777685419 | 4.44° C | 95% | 1026 hPa | 0 mm | - | - | - |
| 1777684513 | 4.44° C | 95% | 1027 hPa | 0 mm | - | - | - |
| 1777683622 | 3.89° C | 94% | 1027 hPa | 0 mm | - | - | - |
| 1777682713 | 4.44° C | 93% | 1027 hPa | 0 mm | - | - | - |
* Rain latest hour (hover to see other rain measurements)
** Current wind speed in m/s (hover to see current wind gust speed)